Time;durP1;ratioP1;P1;durP2;ratioP2;P2;SDS_P1;SDS_P2;PMS_P1;PMS_P2;Temp;Humidity;BMP_temperature;BMP_pressure;BME280_temperature;BME280_humidity;BME280_pressure;Samples;Min_cycle;Max_cycle;Signal;HPM_P1;HPM_P2
2021/03/04 00:01:05;;;;;;;18.10;7.67;;;8.50;1.00;;;;;;5094587;28;20532;-66
2021/03/04 00:03:32;;;;;;;8.97;7.10;;;8.50;1.00;;;;;;5093143;28;20870;-67
2021/03/04 00:05:59;;;;;;;10.30;7.00;;;8.50;99.90;;;;;;5094215;28;20944;-67
2021/03/04 00:08:25;;;;;;;9.53;7.10;;;8.40;99.90;;;;;;5094196;28;20526;-66
2021/03/04 00:10:52;;;;;;;12.77;7.47;;;8.40;1.00;;;;;;5094008;28;20449;-66
2021/03/04 00:13:18;;;;;;;23.50;8.00;;;8.30;1.00;;;;;;5093434;28;20543;-66
2021/03/04 00:15:45;;;;;;;19.20;11.27;;;8.30;1.00;;;;;;5093194;28;20480;-67
2021/03/04 00:18:11;;;;;;;12.10;7.07;;;8.30;1.00;;;;;;5094377;28;20447;-67
2021/03/04 00:20:38;;;;;;;12.03;6.90;;;8.30;1.00;;;;;;5093619;28;20547;-67
2021/03/04 00:23:05;;;;;;;11.33;7.43;;;8.30;1.00;;;;;;5096833;28;20452;-67
2021/03/04 00:25:35;;;;;;;15.30;8.10;;;8.30;1.00;;;;;;5094916;28;20535;-67
2021/03/04 00:28:02;;;;;;;9.27;6.57;;;8.30;1.00;;;;;;5093636;28;20787;-68
2021/03/04 00:30:28;;;;;;;9.80;7.27;;;8.20;1.00;;;;;;5093105;28;20471;-68
2021/03/04 00:32:55;;;;;;;8.70;6.17;;;8.20;1.00;;;;;;5092784;28;20591;-67
2021/03/04 00:35:22;;;;;;;9.57;6.40;;;8.10;1.00;;;;;;5093689;28;20555;-67
2021/03/04 00:37:49;;;;;;;10.03;7.03;;;8.20;99.90;;;;;;5093023;28;20467;-66
2021/03/04 00:40:19;;;;;;;12.10;6.90;;;8.20;99.90;;;;;;5093281;28;20476;-66
2021/03/04 00:42:46;;;;;;;10.33;6.23;;;8.20;99.90;;;;;;5093933;28;20468;-67
2021/03/04 00:45:14;;;;;;;9.43;5.97;;;8.40;99.90;;;;;;5094131;28;20513;-67
2021/03/04 00:47:40;;;;;;;8.13;6.40;;;8.40;99.90;;;;;;5093366;28;20528;-67
2021/03/04 00:50:09;;;;;;;15.10;7.00;;;8.30;99.90;;;;;;5093244;28;20449;-67
2021/03/04 00:52:35;;;;;;;17.77;7.10;;;8.40;99.90;;;;;;5092927;28;20495;-67
2021/03/04 00:55:01;;;;;;;11.60;6.73;;;8.40;99.90;;;;;;5092713;28;21046;-67
2021/03/04 00:57:29;;;;;;;10.40;6.90;;;8.40;99.90;;;;;;5092937;28;20448;-67
2021/03/04 00:59:55;;;;;;;7.83;5.80;;;8.40;99.90;;;;;;5092933;28;20479;-66
2021/03/04 01:02:21;;;;;;;8.30;6.40;;;8.50;99.90;;;;;;5093405;28;20543;-67
2021/03/04 01:04:48;;;;;;;10.93;6.10;;;8.40;99.90;;;;;;5092104;28;20795;-65
2021/03/04 01:07:15;;;;;;;7.50;5.80;;;8.30;99.90;;;;;;5093142;28;20852;-66
2021/03/04 01:09:41;;;;;;;11.37;6.60;;;8.20;99.90;;;;;;5091874;28;20467;-67
2021/03/04 01:12:09;;;;;;;12.93;6.33;;;8.20;99.90;;;;;;5092926;28;20444;-66
2021/03/04 01:14:36;;;;;;;8.03;6.00;;;8.10;99.90;;;;;;5091013;28;21002;-67
2021/03/04 01:17:03;;;;;;;10.93;6.40;;;8.20;99.90;;;;;;5092187;28;20880;-67
2021/03/04 01:19:30;;;;;;;8.63;5.80;;;8.20;99.90;;;;;;5090752;28;20483;-67
2021/03/04 01:21:57;;;;;;;10.77;6.03;;;8.20;99.90;;;;;;5092444;28;20561;-67
2021/03/04 01:24:23;;;;;;;10.63;6.07;;;8.20;99.90;;;;;;5092098;28;20458;-65
2021/03/04 01:26:49;;;;;;;8.70;5.90;;;8.20;99.90;;;;;;5092365;28;20504;-66
2021/03/04 01:29:16;;;;;;;7.93;5.90;;;8.20;99.90;;;;;;5092426;28;20514;-67
2021/03/04 01:31:43;;;;;;;11.17;4.93;;;8.10;99.90;;;;;;5092390;28;20900;-66
2021/03/04 01:34:09;;;;;;;10.30;6.53;;;8.20;99.90;;;;;;5092201;28;20537;-67
2021/03/04 01:36:35;;;;;;;8.27;6.17;;;8.10;99.90;;;;;;5092132;28;20449;-67
2021/03/04 01:39:02;;;;;;;9.40;6.13;;;8.10;99.90;;;;;;5092238;28;20460;-67
2021/03/04 01:41:29;;;;;;;8.10;5.10;;;8.10;99.90;;;;;;5092265;28;20469;-69
2021/03/04 01:43:55;;;;;;;9.13;6.50;;;8.10;99.90;;;;;;5090762;28;20445;-66
2021/03/04 01:46:21;;;;;;;11.77;5.30;;;8.10;99.90;;;;;;5092319;28;20444;-67
2021/03/04 01:48:50;;;;;;;7.00;5.50;;;8.20;99.90;;;;;;5091692;28;20456;-67
2021/03/04 01:51:16;;;;;;;9.17;6.73;;;8.20;99.90;;;;;;5092556;28;20888;-67
2021/03/04 01:53:43;;;;;;;8.80;5.33;;;8.10;99.90;;;;;;5090417;28;20449;-67
2021/03/04 01:56:11;;;;;;;7.53;5.90;;;8.00;99.90;;;;;;5091938;28;20440;-66
2021/03/04 01:58:37;;;;;;;9.50;6.23;;;8.00;99.90;;;;;;5091216;28;20521;-66
2021/03/04 02:01:03;;;;;;;10.93;5.83;;;7.90;99.90;;;;;;5091947;28;20455;-66
2021/03/04 02:03:30;;;;;;;10.53;6.27;;;8.00;99.90;;;;;;5090759;28;20448;-68
2021/03/04 02:05:57;;;;;;;13.80;6.43;;;8.00;99.90;;;;;;5092177;28;21018;-66
2021/03/04 02:08:28;;;;;;;8.27;5.80;;;8.10;99.90;;;;;;5091760;28;20905;-68
2021/03/04 02:11:00;;;;;;;6.37;5.57;;;8.20;46.20;;;;;;5092219;28;20452;-67
2021/03/04 02:13:32;;;;;;;13.73;5.93;;;8.30;37.70;;;;;;5091383;28;20443;-67
2021/03/04 02:16:02;;;;;;;7.60;5.13;;;8.20;38.90;;;;;;5091494;28;20960;-68
2021/03/04 02:18:31;;;;;;;8.70;5.97;;;8.20;9.60;;;;;;5091588;28;20444;-68
2021/03/04 02:21:29;;;;;;;7.63;5.40;;;8.20;1.00;;;;;;5091825;28;20525;-67
2021/03/04 02:24:29;;;;;;;7.00;4.90;;;8.20;1.00;;;;;;5090963;28;20932;-68
2021/03/04 02:27:04;;;;;;;8.73;5.70;;;8.00;20.40;;;;;;5085595;28;20452;-66
2021/03/04 02:29:35;;;;;;;8.37;5.10;;;8.00;20.30;;;;;;5091280;28;20907;-67
2021/03/04 02:32:01;;;;;;;11.83;5.80;;;8.00;20.80;;;;;;5091678;28;20451;-67
2021/03/04 02:34:29;;;;;;;8.03;5.40;;;7.90;30.00;;;;;;5091483;28;20837;-67
2021/03/04 02:36:58;;;;;;;11.40;5.63;;;7.70;41.50;;;;;;5091562;28;20492;-67
2021/03/04 02:39:26;;;;;;;8.17;5.33;;;7.80;53.90;;;;;;5091551;28;20452;-67
2021/03/04 02:41:54;;;;;;;7.67;5.63;;;7.70;63.70;;;;;;5090884;28;20569;-68
2021/03/04 02:44:23;;;;;;;10.83;4.90;;;7.70;96.70;;;;;;5091198;28;20566;-67
2021/03/04 02:46:50;;;;;;;10.60;5.23;;;;;;;;;;5090671;28;20775;-68
2021/03/04 02:49:18;;;;;;;9.13;5.80;;;7.70;99.90;;;;;;5091471;28;20447;-66
2021/03/04 02:51:46;;;;;;;9.90;5.20;;;7.70;99.90;;;;;;5091214;28;20453;-69
2021/03/04 02:54:14;;;;;;;12.80;7.90;;;7.60;99.90;;;;;;5092133;28;20500;-67
2021/03/04 02:56:42;;;;;;;6.53;5.10;;;7.60;99.90;;;;;;5090302;28;20480;-66
2021/03/04 02:59:09;;;;;;;9.17;5.63;;;7.60;99.90;;;;;;5091312;28;20944;-67
2021/03/04 03:01:37;;;;;;;10.53;5.33;;;7.60;99.90;;;;;;5090584;28;20448;-67
2021/03/04 03:04:05;;;;;;;10.30;5.77;;;7.60;99.90;;;;;;5090784;28;20832;-67
2021/03/04 03:06:34;;;;;;;8.93;4.60;;;7.60;99.90;;;;;;5090602;28;20501;-66
2021/03/04 03:09:01;;;;;;;9.37;4.93;;;7.60;99.90;;;;;;5091152;28;20440;-67
2021/03/04 03:11:29;;;;;;;8.80;5.40;;;7.60;99.90;;;;;;5091186;28;20483;-68
2021/03/04 03:13:56;;;;;;;6.77;4.87;;;7.60;99.90;;;;;;5090717;28;20452;-67
2021/03/04 03:16:22;;;;;;;8.07;5.80;;;7.60;99.90;;;;;;5091172;28;20443;-66
2021/03/04 03:18:51;;;;;;;7.90;7.10;;;7.50;99.90;;;;;;5090302;28;20858;-68
2021/03/04 03:21:17;;;;;;;8.03;4.47;;;7.50;99.90;;;;;;5091229;28;20581;-68
2021/03/04 03:23:43;;;;;;;9.40;5.67;;;7.50;99.90;;;;;;5090256;28;20449;-66
2021/03/04 03:26:10;;;;;;;7.83;5.57;;;7.50;99.90;;;;;;5091211;28;20962;-67
2021/03/04 03:28:36;;;;;;;8.60;4.77;;;7.50;99.90;;;;;;5090460;28;20504;-67
2021/03/04 03:31:03;;;;;;;7.50;5.30;;;7.50;99.90;;;;;;5090757;28;20531;-67
2021/03/04 03:33:30;;;;;;;7.93;5.63;;;7.40;99.90;;;;;;5090395;28;21043;-68
2021/03/04 03:35:57;;;;;;;8.27;5.03;;;7.40;99.90;;;;;;5090773;28;20480;-66
2021/03/04 03:38:24;;;;;;;8.07;5.60;;;7.50;99.90;;;;;;5090679;28;20455;-68
2021/03/04 03:40:54;;;;;;;10.17;5.60;;;7.50;99.90;;;;;;5090413;28;20456;-66
2021/03/04 03:43:22;;;;;;;8.23;5.43;;;7.50;99.90;;;;;;5090287;28;20444;-67
2021/03/04 03:45:53;;;;;;;6.60;4.90;;;7.40;99.90;;;;;;5090089;28;20455;-67
2021/03/04 03:48:23;;;;;;;10.60;5.93;;;7.70;99.90;;;;;;5091027;28;20528;-66
2021/03/04 03:50:51;;;;;;;11.10;5.70;;;7.70;99.90;;;;;;5090274;28;20449;-67
2021/03/04 03:53:19;;;;;;;9.27;5.00;;;7.70;99.90;;;;;;5090385;28;20451;-67
2021/03/04 03:55:47;;;;;;;11.73;5.93;;;7.70;99.90;;;;;;5090228;28;20571;-68
2021/03/04 03:58:16;;;;;;;6.00;4.50;;;7.60;99.90;;;;;;5090972;28;20480;-67
2021/03/04 04:00:43;;;;;;;7.50;4.33;;;7.40;99.90;;;;;;5090390;28;20440;-66
2021/03/04 04:03:10;;;;;;;5.93;4.97;;;7.40;99.90;;;;;;5090324;28;20466;-66
2021/03/04 04:05:37;;;;;;;7.63;5.47;;;7.40;99.90;;;;;;5090168;28;20479;-66
2021/03/04 04:08:04;;;;;;;7.30;4.40;;;7.30;99.90;;;;;;5092411;28;20453;-67
2021/03/04 04:10:35;;;;;;;5.80;4.83;;;7.30;99.90;;;;;;5093014;28;20459;-68
2021/03/04 04:13:02;;;;;;;9.07;5.00;;;7.20;99.90;;;;;;5093697;28;20450;-66
2021/03/04 04:15:30;;;;;;;7.27;4.60;;;7.20;99.90;;;;;;5093936;28;20525;-68
2021/03/04 04:17:59;;;;;;;9.40;5.73;;;7.40;99.90;;;;;;5094246;28;20448;-67
2021/03/04 04:20:27;;;;;;;7.37;4.93;;;7.40;99.90;;;;;;5093865;28;20464;-67
2021/03/04 04:22:56;;;;;;;5.63;4.77;;;7.50;99.90;;;;;;5091654;28;20538;-67
2021/03/04 04:25:24;;;;;;;6.17;4.13;;;7.40;99.90;;;;;;5093315;28;20884;-67
2021/03/04 04:27:52;;;;;;;7.53;5.20;;;7.40;99.90;;;;;;5092824;28;20804;-68
2021/03/04 04:30:20;;;;;;;7.40;5.50;;;7.30;99.90;;;;;;5094205;28;20513;-67
2021/03/04 04:32:46;;;;;;;8.37;5.57;;;7.30;99.90;;;;;;5092609;28;20451;-67
2021/03/04 04:35:14;;;;;;;10.80;4.90;;;7.30;99.90;;;;;;5093637;28;20537;-67
2021/03/04 04:37:41;;;;;;;5.73;4.33;;;7.40;99.90;;;;;;5093688;28;20890;-66
2021/03/04 04:40:08;;;;;;;8.53;4.60;;;7.40;99.90;;;;;;5093880;28;20452;-68
2021/03/04 04:42:35;;;;;;;7.03;4.40;;;7.40;99.90;;;;;;5092938;28;20922;-66
2021/03/04 04:45:05;;;;;;;6.00;4.67;;;7.40;99.90;;;;;;5093501;28;20455;-65
2021/03/04 04:47:31;;;;;;;6.77;4.80;;;7.30;99.90;;;;;;5093572;28;20523;-68
2021/03/04 04:49:58;;;;;;;11.50;6.10;;;7.40;99.90;;;;;;5093644;28;20556;-66
2021/03/04 04:52:24;;;;;;;9.00;5.57;;;7.40;99.90;;;;;;5092866;28;20440;-66
2021/03/04 04:54:51;;;;;;;8.80;5.37;;;7.20;99.90;;;;;;5092475;28;20533;-68
2021/03/04 04:57:17;;;;;;;9.33;5.50;;;7.20;99.90;;;;;;5093531;28;20449;-66
2021/03/04 04:59:43;;;;;;;10.63;8.00;;;7.20;99.90;;;;;;5093030;28;20448;-67
2021/03/04 05:02:10;;;;;;;6.50;4.93;;;7.20;99.90;;;;;;5093689;28;20552;-67
2021/03/04 05:04:37;;;;;;;9.47;5.17;;;7.30;99.90;;;;;;5092247;28;20456;-67
2021/03/04 05:07:03;;;;;;;8.53;5.43;;;7.30;99.90;;;;;;5092737;28;20929;-65
2021/03/04 05:09:29;;;;;;;13.27;5.60;;;7.40;86.90;;;;;;5093192;28;20466;-65
2021/03/04 05:11:56;;;;;;;6.23;4.93;;;7.20;99.90;;;;;;5092800;28;20452;-65
2021/03/04 05:14:22;;;;;;;8.13;4.50;;;7.10;99.90;;;;;;5092617;28;20563;-65
2021/03/04 05:16:48;;;;;;;10.27;5.90;;;7.00;99.90;;;;;;5092570;28;20840;-66
2021/03/04 05:19:16;;;;;;;6.97;5.37;;;7.10;99.90;;;;;;5091704;28;20476;-67
2021/03/04 05:21:42;;;;;;;8.40;6.07;;;7.10;99.90;;;;;;5091841;28;20515;-66
2021/03/04 05:24:09;;;;;;;6.57;5.17;;;7.10;99.90;;;;;;5095533;28;20482;-66
2021/03/04 05:26:36;;;;;;;7.60;5.10;;;7.00;99.90;;;;;;5092866;28;20478;-66
2021/03/04 05:29:03;;;;;;;9.30;6.63;;;7.00;99.90;;;;;;5092825;28;20498;-66
2021/03/04 05:31:30;;;;;;;8.77;4.90;;;6.90;99.90;;;;;;5092388;28;20444;-66
2021/03/04 05:33:56;;;;;;;9.30;5.03;;;6.90;99.90;;;;;;5092504;28;20802;-66
2021/03/04 05:36:24;;;;;;;7.93;4.90;;;7.00;99.90;;;;;;5092738;28;20492;-66
2021/03/04 05:38:50;;;;;;;9.47;6.20;;;7.00;99.90;;;;;;5091654;28;20444;-66
2021/03/04 05:41:21;;;;;;;7.97;5.27;;;6.90;99.90;;;;;;5092252;28;20437;-66
2021/03/04 05:43:47;;;;;;;9.40;5.37;;;6.90;99.90;;;;;;5091783;28;20436;-66
2021/03/04 05:46:15;;;;;;;6.40;5.67;;;6.90;99.90;;;;;;5092742;28;20462;-65
2021/03/04 05:48:44;;;;;;;11.40;5.10;;;6.90;99.90;;;;;;5091702;28;20454;-65
2021/03/04 05:51:14;;;;;;;7.77;5.10;;;6.80;99.90;;;;;;5092367;28;20452;-65
2021/03/04 05:53:47;;;;;;;8.80;4.97;;;6.80;99.90;;;;;;5092054;28;20450;-65
2021/03/04 05:56:16;;;;;;;7.60;4.93;;;6.90;99.90;;;;;;5092585;28;20464;-66
2021/03/04 05:58:44;;;;;;;11.70;6.13;;;6.80;99.90;;;;;;5091954;28;20441;-65
2021/03/04 06:01:10;;;;;;;8.77;5.00;;;6.80;99.90;;;;;;5091548;28;20450;-67
2021/03/04 06:03:37;;;;;;;8.60;5.00;;;6.80;99.90;;;;;;5091426;28;20544;-66
2021/03/04 06:06:04;;;;;;;6.13;4.77;;;6.80;99.90;;;;;;5092113;28;20546;-66
2021/03/04 06:08:31;;;;;;;8.53;4.87;;;6.80;99.90;;;;;;5092151;28;20479;-66
2021/03/04 06:11:00;;;;;;;14.60;5.30;;;6.80;99.90;;;;;;5091288;28;20448;-66
2021/03/04 06:13:27;;;;;;;11.07;5.53;;;6.70;99.90;;;;;;5091973;28;20497;-66
2021/03/04 06:15:53;;;;;;;10.00;5.20;;;6.70;99.90;;;;;;5091426;28;20595;-66
2021/03/04 06:18:20;;;;;;;7.13;5.20;;;6.70;99.90;;;;;;5092215;28;20531;-66
2021/03/04 06:20:46;;;;;;;11.60;5.80;;;6.70;99.90;;;;;;5090894;28;20464;-66
2021/03/04 06:23:12;;;;;;;10.80;4.70;;;6.80;99.90;;;;;;5092130;28;20472;-66
2021/03/04 06:25:39;;;;;;;10.40;6.20;;;6.80;99.90;;;;;;5091353;28;20531;-66
2021/03/04 06:28:07;;;;;;;5.97;5.37;;;6.80;99.90;;;;;;5092048;28;20459;-66
2021/03/04 06:30:35;;;;;;;9.03;5.70;;;6.80;99.90;;;;;;5090277;28;20453;-68
2021/03/04 06:33:03;;;;;;;12.33;5.47;;;6.80;99.90;;;;;;5091424;28;20462;-66
2021/03/04 06:35:32;;;;;;;8.40;4.50;;;6.80;99.90;;;;;;5091510;28;20936;-66
2021/03/04 06:37:59;;;;;;;9.93;5.37;;;6.80;99.90;;;;;;5091796;28;20510;-66
2021/03/04 06:40:27;;;;;;;8.20;4.30;;;6.80;99.90;;;;;;5091162;28;20456;-66
2021/03/04 06:42:54;;;;;;;9.50;5.60;;;6.70;99.90;;;;;;5091653;28;20945;-66
2021/03/04 06:45:30;;;;;;;11.70;5.53;;;6.80;99.90;;;;;;5091883;28;20447;-66
2021/03/04 06:48:10;;;;;;;9.33;5.80;;;6.90;99.90;;;;;;5091259;28;20477;-66
2021/03/04 06:50:37;;;;;;;6.10;5.20;;;6.90;99.90;;;;;;5090603;28;20467;-66
2021/03/04 06:53:20;;;;;;;10.37;7.47;;;6.90;99.90;;;;;;5091516;28;20835;-66
2021/03/04 06:55:51;;;;;;;11.10;5.40;;;7.00;99.90;;;;;;5081611;28;20507;-66
2021/03/04 06:58:24;;;;;;;10.30;5.80;;;7.00;99.90;;;;;;5087527;28;20441;-66
2021/03/04 07:01:06;;;;;;;13.53;6.47;;;7.00;99.90;;;;;;5090454;28;20445;-67
2021/03/04 07:03:40;;;;;;;10.23;5.87;;;7.00;99.90;;;;;;5091297;28;20456;-66
2021/03/04 07:06:09;;;;;;;7.90;6.47;;;7.00;99.90;;;;;;5091067;28;20467;-66
2021/03/04 07:08:36;;;;;;;9.60;5.83;;;7.00;99.90;;;;;;5090575;28;20517;-67
2021/03/04 07:11:07;;;;;;;10.57;5.53;;;7.00;99.90;;;;;;5090839;28;20528;-66
2021/03/04 07:13:36;;;;;;;10.40;5.80;;;7.20;99.90;;;;;;5091269;28;20488;-66
2021/03/04 07:16:06;;;;;;;9.73;5.53;;;7.40;13.00;;;;;;5091116;28;20552;-66
2021/03/04 07:18:39;;;;;;;8.83;6.00;;;7.40;1.00;;;;;;5091076;28;20900;-65
2021/03/04 07:21:10;;;;;;;9.90;5.90;;;7.50;1.00;;;;;;5090541;28;20450;-66
2021/03/04 07:23:38;;;;;;;10.27;6.27;;;7.60;1.00;;;;;;5090320;28;20948;-67
2021/03/04 07:26:05;;;;;;;8.57;6.30;;;7.60;1.00;;;;;;5090932;28;20452;-66
2021/03/04 07:28:32;;;;;;;9.90;6.37;;;7.70;1.00;;;;;;5090844;28;20948;-66
2021/03/04 07:31:01;;;;;;;14.70;8.00;;;7.80;1.00;;;;;;5090133;28;20506;-66
2021/03/04 07:33:29;;;;;;;10.90;7.90;;;7.90;1.00;;;;;;5091007;28;20451;-66
2021/03/04 07:35:56;;;;;;;8.43;6.60;;;7.80;1.00;;;;;;5090070;28;20487;-66
2021/03/04 07:38:27;;;;;;;8.83;6.47;;;7.90;1.00;;;;;;5090630;28;20531;-66
2021/03/04 07:41:06;;;;;;;11.97;6.60;;;8.00;1.00;;;;;;5090089;28;20547;-65
2021/03/04 07:43:48;;;;;;;14.03;6.87;;;8.20;1.00;;;;;;5094219;28;20535;-65
2021/03/04 07:46:30;;;;;;;8.17;5.70;;;8.40;1.00;;;;;;5092378;28;20471;-67
2021/03/04 07:48:57;;;;;;;11.77;6.50;;;;;;;;;;5094337;28;20440;-66
2021/03/04 07:51:24;;;;;;;17.53;6.97;;;8.60;1.00;;;;;;5094358;28;20446;-67
2021/03/04 07:53:52;;;;;;;11.23;6.10;;;9.10;1.00;;;;;;5094261;28;20440;-66
2021/03/04 07:56:23;;;;;;;11.03;6.70;;;;;;;;;;5094752;28;20559;-68
2021/03/04 07:58:49;;;;;;;8.83;6.80;;;9.40;1.00;;;;;;5093787;28;20953;-66
2021/03/04 08:01:16;;;;;;;12.47;6.90;;;9.60;1.00;;;;;;5094273;28;20470;-66
2021/03/04 08:03:47;;;;;;;9.50;6.17;;;9.70;1.00;;;;;;5093684;28;20943;-66
2021/03/04 08:06:14;;;;;;;15.17;6.13;;;9.80;99.90;;;;;;5094365;28;20528;-65
2021/03/04 08:08:41;;;;;;;15.63;6.60;;;9.80;99.90;;;;;;5094053;28;20485;-66
2021/03/04 08:11:08;;;;;;;8.53;6.07;;;10.10;99.90;;;;;;5093720;28;20448;-66
2021/03/04 08:13:38;;;;;;;11.10;6.33;;;10.30;99.90;;;;;;5094262;28;20576;-67
2021/03/04 08:16:12;;;;;;;12.90;5.73;;;;;;;;;;5093757;28;20584;-67
2021/03/04 08:18:40;;;;;;;11.47;6.27;;;10.40;99.90;;;;;;5093757;28;20443;-66
2021/03/04 08:21:08;;;;;;;9.97;5.20;;;10.90;99.90;;;;;;5093297;28;20484;-67
2021/03/04 08:23:42;;;;;;;7.87;5.37;;;11.00;99.90;;;;;;5094199;28;20452;-65
2021/03/04 08:26:19;;;;;;;10.23;5.60;;;11.10;99.90;;;;;;5094203;28;20779;-66
2021/03/04 08:28:45;;;;;;;8.30;5.63;;;11.20;99.90;;;;;;5093443;28;20781;-66
2021/03/04 08:31:12;;;;;;;8.50;4.83;;;11.30;99.90;;;;;;5093466;28;20534;-66
2021/03/04 08:33:38;;;;;;;9.97;6.50;;;11.40;99.90;;;;;;5093094;28;20928;-66
2021/03/04 08:36:05;;;;;;;12.70;5.67;;;11.40;99.90;;;;;;5093742;28;20603;-66
2021/03/04 08:38:40;;;;;;;11.70;5.93;;;11.50;99.90;;;;;;5093561;28;20520;-67
2021/03/04 08:41:06;;;;;;;8.60;5.47;;;11.60;99.90;;;;;;5093470;28;20436;-66
2021/03/04 08:43:33;;;;;;;10.80;6.27;;;11.80;96.50;;;;;;5093437;28;20928;-66
2021/03/04 08:46:01;;;;;;;11.03;6.10;;;11.90;92.00;;;;;;5092955;28;20536;-66
2021/03/04 08:48:27;;;;;;;7.67;5.63;;;12.00;89.00;;;;;;5093340;28;20527;-66
2021/03/04 08:50:55;;;;;;;9.40;4.90;;;12.00;83.40;;;;;;5092321;28;20459;-66
2021/03/04 08:53:26;;;;;;;9.23;6.07;;;12.00;76.80;;;;;;5093339;28;20601;-66
2021/03/04 08:55:55;;;;;;;12.53;6.70;;;12.00;71.40;;;;;;5092942;28;20472;-66
2021/03/04 08:58:22;;;;;;;13.87;7.33;;;12.10;69.10;;;;;;5093436;28;20540;-66
2021/03/04 09:00:51;;;;;;;9.30;6.20;;;12.20;65.40;;;;;;5092441;28;20467;-66
2021/03/04 09:03:18;;;;;;;9.50;6.07;;;12.30;61.60;;;;;;5093256;28;20449;-65
2021/03/04 09:05:44;;;;;;;12.43;5.53;;;12.30;56.20;;;;;;5092426;28;21004;-66
2021/03/04 09:08:12;;;;;;;8.80;5.17;;;12.30;55.80;;;;;;5092981;28;20463;-66
2021/03/04 09:10:40;;;;;;;12.10;5.93;;;12.30;52.80;;;;;;5091547;28;20634;-66
2021/03/04 09:13:08;;;;;;;9.90;5.67;;;12.30;51.30;;;;;;5092501;28;20967;-66
2021/03/04 09:15:35;;;;;;;15.00;6.40;;;12.20;50.20;;;;;;5093041;28;20611;-66
2021/03/04 09:18:07;;;;;;;8.00;5.30;;;12.20;50.90;;;;;;5092211;28;20459;-66
2021/03/04 09:20:34;;;;;;;11.00;5.60;;;12.20;51.60;;;;;;5092818;28;20476;-67
2021/03/04 09:23:00;;;;;;;9.13;5.47;;;12.30;57.60;;;;;;5092201;28;20444;-66
2021/03/04 09:25:27;;;;;;;11.40;6.93;;;12.40;49.70;;;;;;5092612;28;20448;-66
2021/03/04 09:27:54;;;;;;;7.93;5.40;;;12.50;49.70;;;;;;5092307;28;20457;-66
2021/03/04 09:30:26;;;;;;;11.60;6.03;;;12.60;48.00;;;;;;5092181;28;20472;-66
2021/03/04 09:32:53;;;;;;;17.10;6.80;;;12.70;46.70;;;;;;5091911;28;20524;-66
2021/03/04 09:35:20;;;;;;;8.10;5.50;;;12.70;47.50;;;;;;5092666;28;20512;-66
2021/03/04 09:37:46;;;;;;;9.97;6.03;;;12.80;47.10;;;;;;5092235;28;20458;-67
2021/03/04 09:40:23;;;;;;;10.63;6.03;;;12.80;55.20;;;;;;5092426;28;20534;-66
2021/03/04 09:42:49;;;;;;;14.97;8.50;;;12.80;37.90;;;;;;5091968;28;20447;-66
2021/03/04 09:45:16;;;;;;;8.00;5.53;;;12.70;47.40;;;;;;5092536;28;20480;-66
2021/03/04 09:47:48;;;;;;;13.10;5.67;;;12.70;48.40;;;;;;5092284;28;20455;-67
2021/03/04 09:50:19;;;;;;;11.40;6.70;;;12.70;49.00;;;;;;5092259;28;20531;-66
2021/03/04 09:52:46;;;;;;;11.03;5.73;;;12.90;48.50;;;;;;5091924;28;20448;-66
2021/03/04 09:55:15;;;;;;;11.77;5.20;;;12.90;46.60;;;;;;5092266;28;20997;-66
2021/03/04 09:57:42;;;;;;;14.13;6.67;;;13.00;46.70;;;;;;5091858;28;20494;-67
2021/03/04 10:00:24;;;;;;;12.67;5.40;;;13.10;45.20;;;;;;5091638;28;20448;-66
2021/03/04 10:02:53;;;;;;;10.47;6.13;;;13.10;46.10;;;;;;5088889;28;20468;-66
2021/03/04 10:05:21;;;;;;;11.37;6.27;;;13.30;44.80;;;;;;5092130;28;20448;-66
2021/03/04 10:07:48;;;;;;;12.17;6.33;;;13.40;50.40;;;;;;5091634;28;20441;-67
2021/03/04 10:10:16;;;;;;;11.00;6.43;;;13.40;42.90;;;;;;5091651;28;20806;-66
2021/03/04 10:12:50;;;;;;;19.17;6.17;;;13.60;42.30;;;;;;5091360;28;20455;-67
2021/03/04 10:15:28;;;;;;;8.80;5.30;;;13.60;41.70;;;;;;5092085;28;20476;-67
2021/03/04 10:17:56;;;;;;;11.60;5.43;;;13.80;41.70;;;;;;5091532;28;20456;-66
2021/03/04 10:20:23;;;;;;;13.47;5.67;;;13.90;43.90;;;;;;5091507;28;20472;-67
2021/03/04 10:22:50;;;;;;;13.53;6.20;;;13.90;43.50;;;;;;5091089;28;20440;-67
2021/03/04 10:25:17;;;;;;;11.80;6.37;;;13.90;43.30;;;;;;5094083;28;20590;-66
2021/03/04 10:27:43;;;;;;;9.00;6.47;;;13.90;43.70;;;;;;5093418;28;20476;-67
2021/03/04 10:30:11;;;;;;;12.93;6.40;;;14.10;56.50;;;;;;5091498;28;20448;-68
2021/03/04 10:32:38;;;;;;;18.77;6.30;;;14.10;41.10;;;;;;5091682;28;20444;-67
2021/03/04 10:35:07;;;;;;;16.80;6.70;;;14.20;41.10;;;;;;5091727;28;20947;-67
2021/03/04 10:37:34;;;;;;;14.03;8.40;;;14.50;40.80;;;;;;5091689;28;20448;-67
2021/03/04 10:40:00;;;;;;;11.60;6.77;;;14.60;41.40;;;;;;5090740;28;20495;-67
2021/03/04 10:42:27;;;;;;;10.80;7.07;;;14.80;38.90;;;;;;5091620;28;20444;-67
2021/03/04 10:44:55;;;;;;;13.20;7.00;;;14.80;35.90;;;;;;5090769;28;20452;-66
2021/03/04 10:47:21;;;;;;;15.13;8.47;;;14.80;37.50;;;;;;5091439;28;20531;-67
2021/03/04 10:49:48;;;;;;;13.37;8.37;;;14.70;38.20;;;;;;5090222;28;20455;-68
2021/03/04 10:52:15;;;;;;;13.77;7.50;;;14.80;38.20;;;;;;5091050;28;20963;-67
2021/03/04 10:54:41;;;;;;;12.17;7.70;;;14.90;38.60;;;;;;5090564;28;20456;-67
2021/03/04 10:57:08;;;;;;;13.00;7.00;;;15.00;36.90;;;;;;5091088;28;20449;-67
2021/03/04 10:59:34;;;;;;;12.33;7.07;;;15.10;38.20;;;;;;5090965;28;21093;-67
2021/03/04 11:02:00;;;;;;;8.53;6.63;;;15.30;34.10;;;;;;5090374;28;20452;-67
2021/03/04 11:04:27;;;;;;;12.37;7.10;;;15.30;33.70;;;;;;5090713;28;20448;-67
2021/03/04 11:06:53;;;;;;;12.40;7.43;;;15.50;29.20;;;;;;5090653;28;20536;-67
2021/03/04 11:09:21;;;;;;;14.40;7.60;;;15.60;27.00;;;;;;5090843;28;20495;-67
2021/03/04 11:11:47;;;;;;;11.53;6.97;;;15.70;26.20;;;;;;5090727;28;20493;-66
2021/03/04 11:14:14;;;;;;;10.03;7.50;;;15.80;25.70;;;;;;5091337;28;20803;-67
2021/03/04 11:16:40;;;;;;;15.03;6.40;;;16.00;25.00;;;;;;5091105;28;20486;-66
2021/03/04 11:19:08;;;;;;;17.63;8.10;;;16.10;22.70;;;;;;5094362;28;20444;-67
2021/03/04 11:21:35;;;;;;;15.73;7.40;;;15.90;22.20;;;;;;5095384;28;20452;-67
2021/03/04 11:24:02;;;;;;;12.50;7.90;;;16.00;19.60;;;;;;5094458;28;20516;-67
2021/03/04 11:26:29;;;;;;;18.50;7.77;;;15.70;20.60;;;;;;5094838;28;20448;-66
2021/03/04 11:28:55;;;;;;;17.10;7.47;;;16.10;20.60;;;;;;5094459;28;20543;-66
2021/03/04 11:31:22;;;;;;;9.63;7.43;;;16.20;19.10;;;;;;5094924;28;20440;-67
2021/03/04 11:33:48;;;;;;;11.60;7.63;;;16.10;18.90;;;;;;5094256;28;20519;-67
2021/03/04 11:36:15;;;;;;;13.83;7.27;;;16.10;17.80;;;;;;5094794;28;20563;-67
2021/03/04 11:38:41;;;;;;;16.00;7.67;;;16.40;16.90;;;;;;5094681;28;20963;-67
2021/03/04 11:41:08;;;;;;;15.03;7.90;;;16.00;16.70;;;;;;5094593;28;20440;-67
2021/03/04 11:43:35;;;;;;;11.40;6.67;;;16.10;15.80;;;;;;5094584;28;20460;-67
2021/03/04 11:46:01;;;;;;;20.53;8.40;;;16.00;16.10;;;;;;5093999;28;20677;-66
2021/03/04 11:48:29;;;;;;;13.37;6.80;;;16.00;17.30;;;;;;5094806;28;20532;-66
2021/03/04 11:50:55;;;;;;;12.53;7.57;;;15.90;17.40;;;;;;5094016;28;20934;-66
2021/03/04 11:53:22;;;;;;;16.10;8.10;;;16.10;16.80;;;;;;5094415;28;20452;-65
2021/03/04 11:55:48;;;;;;;11.73;8.07;;;16.00;16.30;;;;;;5094008;28;20471;-66
2021/03/04 11:58:14;;;;;;;9.73;6.27;;;16.20;15.00;;;;;;5094838;28;20524;-66
2021/03/04 12:00:42;;;;;;;17.53;7.97;;;16.30;12.20;;;;;;5094112;28;20916;-65
2021/03/04 12:03:08;;;;;;;12.47;7.83;;;16.20;11.50;;;;;;5094320;28;20491;-66
2021/03/04 12:05:35;;;;;;;13.50;7.23;;;16.10;10.90;;;;;;5094414;28;20467;-65
2021/03/04 12:08:01;;;;;;;13.90;7.93;;;16.20;10.40;;;;;;5093755;28;20475;-66
2021/03/04 12:10:28;;;;;;;16.20;9.10;;;16.20;10.50;;;;;;5093807;28;20452;-66
2021/03/04 12:12:54;;;;;;;19.83;8.47;;;16.20;14.30;;;;;;5093555;28;20476;-66
2021/03/04 12:15:21;;;;;;;14.57;8.23;;;16.30;14.90;;;;;;5093841;28;20480;-66
2021/03/04 12:17:48;;;;;;;11.63;7.67;;;16.60;12.50;;;;;;5093242;28;20995;-66
2021/03/04 12:20:15;;;;;;;15.33;7.37;;;16.60;10.40;;;;;;5093253;28;20478;-66
2021/03/04 12:22:42;;;;;;;15.27;7.13;;;16.70;9.20;;;;;;5092876;28;20445;-66
2021/03/04 12:25:09;;;;;;;12.23;7.33;;;16.70;6.40;;;;;;5092815;28;21001;-66
2021/03/04 12:27:36;;;;;;;12.93;6.50;;;16.70;4.20;;;;;;5092765;28;20452;-66
2021/03/04 12:30:03;;;;;;;8.30;6.57;;;17.00;3.60;;;;;;5091773;28;20784;-66
2021/03/04 12:32:30;;;;;;;12.10;6.40;;;16.90;2.30;;;;;;5093060;28;20453;-66
2021/03/04 12:34:57;;;;;;;15.00;6.20;;;17.00;1.00;;;;;;5092270;28;20536;-66
2021/03/04 12:37:23;;;;;;;14.20;6.70;;;16.80;1.00;;;;;;5092478;28;20597;-66
2021/03/04 12:39:50;;;;;;;10.00;6.40;;;16.70;1.00;;;;;;5091816;28;20459;-66
2021/03/04 12:42:16;;;;;;;18.83;7.00;;;16.60;1.00;;;;;;5092760;28;20453;-66
2021/03/04 12:44:43;;;;;;;10.07;6.57;;;16.30;1.00;;;;;;5092234;28;21012;-66
2021/03/04 12:47:10;;;;;;;12.37;6.67;;;16.60;1.00;;;;;;5092290;28;20453;-66
2021/03/04 12:49:36;;;;;;;16.03;6.70;;;16.70;1.00;;;;;;5092039;28;20519;-66
2021/03/04 12:52:04;;;;;;;13.30;6.27;;;16.50;1.00;;;;;;5091648;28;20941;-66
2021/03/04 12:54:30;;;;;;;6.73;5.00;;;16.50;1.00;;;;;;5092461;28;20503;-66